createdAt,value
2023-03-12T08:41:56.761Z,5.78
2023-03-12T08:47:02.129Z,6.68
2023-03-12T08:52:08.142Z,7.22
2023-03-12T08:57:16.327Z,7.49
2023-03-12T09:02:21.396Z,7.72
2023-03-12T09:07:26.728Z,7.96
2023-03-12T09:12:34.762Z,8.17
2023-03-12T09:17:39.973Z,8.21
2023-03-12T09:22:45.954Z,8.18
2023-03-12T09:27:53.791Z,8.33
2023-03-12T09:32:59.437Z,8.39
2023-03-12T09:38:04.892Z,8.51
2023-03-12T09:43:16.630Z,8.61
2023-03-12T09:48:24.741Z,8.67
2023-03-12T09:53:31.941Z,8.67
2023-03-12T09:58:40.816Z,8.78
2023-03-12T10:04:04.027Z,9.03
2023-03-12T10:09:26.451Z,9.18
2023-03-12T10:14:46.053Z,9.26
2023-03-12T10:20:09.311Z,9.37
2023-03-12T10:25:19.651Z,9.44
2023-03-12T10:30:29.398Z,9.53
2023-03-12T10:35:34.637Z,9.66
2023-03-12T10:40:39.977Z,9.83
2023-03-12T10:45:50.690Z,10.00
2023-03-12T10:51:05.916Z,10.27
2023-03-12T10:56:12.291Z,10.53
2023-03-12T11:01:24.841Z,10.89
2023-03-12T11:06:32.274Z,10.99
2023-03-12T11:11:38.475Z,11.14
2023-03-12T11:16:46.552Z,11.34
2023-03-12T11:21:59.023Z,11.59
2023-03-12T11:27:08.073Z,11.86
2023-03-12T11:32:20.231Z,12.14
2023-03-12T11:37:33.986Z,12.50
2023-03-12T11:42:51.747Z,12.97
2023-03-12T11:48:19.714Z,13.44
2023-03-12T11:53:56.522Z,13.97
2023-03-12T11:59:21.367Z,14.38
2023-03-12T12:04:56.600Z,14.67
2023-03-12T12:10:05.239Z,14.78
2023-03-12T12:15:20.796Z,15.15
2023-03-12T12:20:36.947Z,15.80
2023-03-12T12:25:52.879Z,16.39
2023-03-12T12:31:15.457Z,17.02
2023-03-12T12:36:23.210Z,17.22
2023-03-12T12:41:29.113Z,17.40
2023-03-12T12:46:36.477Z,17.47
2023-03-12T12:51:46.870Z,17.48
2023-03-12T12:56:54.260Z,17.32
2023-03-12T13:01:59.568Z,17.07
2023-03-12T13:07:34.814Z,17.23
2023-03-12T13:12:45.479Z,17.22
2023-03-12T13:18:12.137Z,16.85
2023-03-12T13:23:39.585Z,16.59
2023-03-12T13:29:11.830Z,16.47
2023-03-12T13:34:53.503Z,16.42
2023-03-12T13:40:10.680Z,16.32
2023-03-12T13:45:31.858Z,16.29
2023-03-12T13:50:38.512Z,16.42
2023-03-12T13:55:46.198Z,16.63
2023-03-12T14:00:56.612Z,16.71
2023-03-12T14:06:03.507Z,16.48
2023-03-12T14:11:24.693Z,16.37
2023-03-12T14:16:32.404Z,16.32
2023-03-12T14:21:40.047Z,16.33
2023-03-12T14:26:49.126Z,16.35
2023-03-12T14:31:54.318Z,16.35
2023-03-12T14:37:03.715Z,16.45
2023-03-12T14:42:12.029Z,16.46
2023-03-12T14:47:20.681Z,16.34
2023-03-12T14:52:27.089Z,16.24
2023-03-12T14:57:34.875Z,16.13
2023-03-12T15:02:41.285Z,16.10
2023-03-12T15:07:46.694Z,16.09
2023-03-12T15:12:54.842Z,16.04
2023-03-12T15:18:00.016Z,15.86
2023-03-12T15:23:05.351Z,15.69
2023-03-12T15:28:29.609Z,15.55
2023-03-12T15:33:34.861Z,15.40
2023-03-12T15:38:41.032Z,15.34
2023-03-12T15:43:49.724Z,15.29
2023-03-12T15:48:56.239Z,15.21
2023-03-12T15:54:06.535Z,15.17
2023-03-12T15:59:27.798Z,15.14
2023-03-12T16:04:32.996Z,15.05
2023-03-12T16:09:38.097Z,14.95
2023-03-12T16:14:51.558Z,14.98
2023-03-12T16:19:56.746Z,14.98
2023-03-12T16:25:01.972Z,15.01
2023-03-12T16:30:15.268Z,15.02
2023-03-12T16:35:21.601Z,14.99
2023-03-12T16:40:33.374Z,14.95
2023-03-12T16:45:41.675Z,14.94
2023-03-12T16:50:51.919Z,14.90
2023-03-12T16:55:58.693Z,14.82
2023-03-12T17:01:06.900Z,14.74
2023-03-12T17:06:17.809Z,14.67
2023-03-12T17:11:24.752Z,14.58
2023-03-12T17:16:32.841Z,14.48
2023-03-12T17:21:38.119Z,14.35
2023-03-12T17:26:43.397Z,14.20
2023-03-12T17:31:51.297Z,14.07
2023-03-12T17:36:56.449Z,13.96
2023-03-12T17:42:03.944Z,13.87
2023-03-12T17:47:11.739Z,13.81
2023-03-12T17:52:17.231Z,13.75
2023-03-12T17:57:23.198Z,13.69
2023-03-12T18:02:31.074Z,13.69
2023-03-12T18:07:36.296Z,13.68
2023-03-12T18:12:41.458Z,13.68
2023-03-12T18:17:52.416Z,13.68
2023-03-12T18:22:57.558Z,13.65
2023-03-12T18:28:02.875Z,13.68
2023-03-12T18:33:10.636Z,13.72
2023-03-12T18:38:15.928Z,13.72
2023-03-12T18:43:22.027Z,13.76
2023-03-12T18:48:29.901Z,13.78
2023-03-12T18:53:35.300Z,13.79
2023-03-12T18:58:40.578Z,13.81
2023-03-12T19:03:48.425Z,13.83
2023-03-12T19:08:54.120Z,13.82
2023-03-12T19:14:02.131Z,13.84
2023-03-12T19:19:12.900Z,13.85
2023-03-12T19:24:18.321Z,13.81
2023-03-12T19:29:23.561Z,13.76
2023-03-12T19:34:31.337Z,13.69
2023-03-12T19:39:36.520Z,13.59
2023-03-12T19:44:42.350Z,13.51
2023-03-12T19:49:50.138Z,13.43
2023-03-12T19:55:04.238Z,13.38
2023-03-12T20:00:12.854Z,13.32
2023-03-12T20:05:21.078Z,13.28
2023-03-12T20:10:27.843Z,13.23
2023-03-12T20:15:33.290Z,13.23
2023-03-12T20:20:41.050Z,13.19
2023-03-12T20:25:46.426Z,13.16
2023-03-12T20:30:51.705Z,13.16
2023-03-12T20:35:59.575Z,13.14
2023-03-12T20:41:05.064Z,13.12
2023-03-12T20:46:10.262Z,13.08
2023-03-12T20:51:18.128Z,13.04
2023-03-12T20:56:23.337Z,12.97
2023-03-12T21:01:28.693Z,12.92
2023-03-12T21:06:36.505Z,12.87
2023-03-12T21:11:41.777Z,12.82
2023-03-12T21:16:47.064Z,12.76
2023-03-12T21:21:54.865Z,12.75
2023-03-12T21:27:00.596Z,12.70
2023-03-12T21:32:05.799Z,12.69
2023-03-12T21:37:14.023Z,12.66
2023-03-12T21:42:19.121Z,12.62
2023-03-12T21:47:24.186Z,12.62
2023-03-12T21:52:33.644Z,12.66
2023-03-12T21:57:38.837Z,12.63
2023-03-12T22:02:44.107Z,12.61
2023-03-12T22:07:51.856Z,12.59
2023-03-12T22:12:57.177Z,12.57
2023-03-12T22:18:02.295Z,12.56
2023-03-12T22:23:09.989Z,12.57
2023-03-12T22:28:15.151Z,12.53
2023-03-12T22:33:20.214Z,12.52
2023-03-12T22:38:27.911Z,12.54
2023-03-12T22:43:32.966Z,12.55
2023-03-12T22:48:38.194Z,12.62
2023-03-12T22:53:46.096Z,12.73
